Airport View

Enter AWOS ICAO identifier for current METAR.

ex. KFNL

KFTG 191947Z 08007KT 10SM SCT120 BKN220 36/M02 A3012

19 Aug 2019 20:17

Frequency: 119.025

Phone: 303-261-9104

Other Area AWOS: KDEN - KBKF - KAPA - KEIK

TAF KDEN 191720Z 1918/2024 31005KT P6SM FEW120 SCT220 FM191900 06008KT P6SM FEW120 SCT220 FM200200 10008KT P6SM SCT120 BKN220 FM200500 19008KT P6SM FEW120 SCT220 FM201500 31006KT P6SM FEW120 SCT220 FM202100 09011KT P6SM FEW080 SCT120 BKN200